To NAV CANADA Home Page Login to a new session Search on AWWS site Feedback and Comments Disclaimer Vers la page française équivalente Tips FAQ What's new on the site To the Forecasts and Observations / NOTAM section To "File a Flight Plan" website Publications and other links Update of the User's profile FIC Telephone Numbers My Weather Data Folder Route Weather Data Regional Weather Data Local Weather Data To the Forecasts and Observations / NOTAM section
Request Generated 03/28/2015 at 10:59:53 UTC . Weather information available at that time is displayed.

METAR/TAF

GRANDE PRAIRIE/AB    

METAR CYQU 281000Z 23004KT 25SM FEW056 BKN080 03/03 A2963 RMK SC2AC5
SLP053=
METAR CYQU 280900Z 24005KT 25SM FEW056 BKN080 BKN200 04/03 A2964 RMK
SC2AC3CI2 SLP055=
METAR CYQU 280800Z 24006KT 25SM SCT045 BKN200 04/04 A2965 RMK SC3CI4
SLP057=

TAF AMD CYQU 281049Z 2810/2819 23005KT P6SM FEW020 SCT040 BKN080
TEMPO 2810/2813 3SM BR BKN020
FM281300 30006KT 6SM BR SCT006 BKN020 TEMPO 2813/2815 1SM -SHRA
BR BKN006
FM281500 33008KT 2SM -RA BR OVC004 TEMPO 2815/2817 31015KT 5SM
-RA BR SCT004 OVC010
FM281700 28008KT P6SM SCT010 BKN025 TEMPO 2817/2819 P6SM -SHRA
BKN010
RMK NXT FCST BY 281300Z=
Your time UTC time
Weather data provided by Environment Canada and NAV CANADA